Time;durP1;ratioP1;P1;durP2;ratioP2;P2;SDS_P1;SDS_P2;PMS_P1;PMS_P2;Temp;Humidity;BMP_temperature;BMP_pressure;BME280_temperature;BME280_humidity;BME280_pressure;Samples;Min_cycle;Max_cycle;Signal;HPM_P1;HPM_P2
2022/12/12 00:01:18;;;;;;;20.97;9.03;;;;;;;;;;5055158;28;20219;-41
2022/12/12 00:03:45;;;;;;;22.90;8.83;;;;;;;;;;5055029;28;20204;-43
2022/12/12 00:06:13;;;;;;;14.13;6.53;;;;;;;;;;5054997;28;20204;-43
2022/12/12 00:08:40;;;;;;;16.40;8.43;;;;;;;;;;5055254;28;20270;-43
2022/12/12 00:11:07;;;;;;;14.60;6.50;;;;;;;;;;5055130;28;20214;-42
2022/12/12 00:13:36;;;;;;;16.13;7.37;;;;;;;;;;5055140;28;20200;-42
2022/12/12 00:16:05;;;;;;;17.83;8.40;;;;;;;;;;5054721;28;20297;-43
2022/12/12 00:18:32;;;;;;;12.87;6.63;;;;;;;;;;5055096;28;20223;-43
2022/12/12 00:20:59;;;;;;;12.83;7.00;;;;;;;;;;5054616;28;20658;-42
2022/12/12 00:23:26;;;;;;;10.07;5.33;;;;;;;;;;5055006;28;20196;-43
2022/12/12 00:26:00;;;;;;;12.03;5.47;;;;;;;;;;5054797;28;20212;-43
2022/12/12 00:28:28;;;;;;;15.67;7.67;;;;;;;;;;5054430;28;20188;-42
2022/12/12 00:30:55;;;;;;;14.47;8.30;;;;;;;;;;5054465;28;20648;-43
2022/12/12 00:33:22;;;;;;;16.97;7.63;;;;;;;;;;5054512;28;20219;-44
2022/12/12 00:35:51;;;;;;;10.63;5.97;;;;;;;;;;5054427;28;20212;-43
2022/12/12 00:38:20;;;;;;;19.30;8.10;;;;;;;;;;5054493;28;20230;-43
2022/12/12 00:40:47;;;;;;;14.40;6.87;;;;;;;;;;5054354;28;20220;-43
2022/12/12 00:43:14;;;;;;;15.50;5.97;;;;;;;;;;5054651;28;20208;-43
2022/12/12 00:45:42;;;;;;;21.80;8.83;;;;;;;;;;5054341;28;20204;-43
2022/12/12 00:48:09;;;;;;;31.73;12.63;;;;;;;;;;5054353;28;20223;-42
2022/12/12 00:50:36;;;;;;;24.43;9.90;;;;;;;;;;5054467;28;20204;-43
2022/12/12 00:53:03;;;;;;;14.50;7.87;;;;;;;;;;5054411;28;20204;-43
2022/12/12 00:55:30;;;;;;;13.97;7.30;;;;;;;;;;5054495;28;20204;-43
2022/12/12 00:57:57;;;;;;;17.07;8.23;;;;;;;;;;5054214;28;20196;-43
2022/12/12 01:00:25;;;;;;;13.93;7.57;;;;;;;;;;5054365;28;20243;-43
2022/12/12 01:02:55;;;;;;;19.63;8.50;;;;;;;;;;5054285;28;20224;-43
2022/12/12 01:05:22;;;;;;;17.37;9.07;;;;;;;;;;5054189;28;20204;-43
2022/12/12 01:07:49;;;;;;;15.57;7.90;;;;;;;;;;5054380;28;20265;-43
2022/12/12 01:10:17;;;;;;;11.57;6.93;;;;;;;;;;5054176;28;20212;-43
2022/12/12 01:12:44;;;;;;;16.73;8.97;;;;;;;;;;5055396;28;20313;-43
2022/12/12 01:15:11;;;;;;;14.13;6.83;;;;;;;;;;5053913;28;20227;-43
2022/12/12 01:17:38;;;;;;;11.53;6.37;;;;;;;;;;5054582;28;20263;-44
2022/12/12 01:20:20;;;;;;;18.80;9.07;;;;;;;;;;5054233;28;20599;-46
2022/12/12 01:22:48;;;;;;;10.57;5.57;;;;;;;;;;5054032;28;20641;-43
2022/12/12 01:25:16;;;;;;;19.27;9.80;;;;;;;;;;5053865;28;20208;-43
2022/12/12 01:27:44;;;;;;;20.43;10.60;;;;;;;;;;5054274;28;20243;-45
2022/12/12 01:30:14;;;;;;;15.40;7.97;;;;;;;;;;5054465;28;20204;-43
2022/12/12 01:32:41;;;;;;;15.90;8.40;;;;;;;;;;5054352;28;20208;-44
2022/12/12 01:35:08;;;;;;;17.47;8.63;;;;;;;;;;5053897;28;20258;-46
2022/12/12 01:37:38;;;;;;;17.17;8.60;;;;;;;;;;5053951;28;20215;-43
2022/12/12 01:40:11;;;;;;;13.83;7.70;;;;;;;;;;5055001;28;20548;-44
2022/12/12 01:42:37;;;;;;;23.37;9.93;;;;;;;;;;5056933;28;20208;-43
2022/12/12 01:45:06;;;;;;;19.83;8.33;;;;;;;;;;5057292;28;20208;-44
2022/12/12 01:47:32;;;;;;;21.93;10.07;;;;;;;;;;5057273;28;20200;-43
2022/12/12 01:50:07;;;;;;;18.30;8.97;;;;;;;;;;5057276;28;20588;-44
2022/12/12 01:52:45;;;;;;;13.80;7.33;;;;;;;;;;5057595;28;20211;-44
2022/12/12 01:55:19;;;;;;;17.73;8.83;;;;;;;;;;5056762;28;20638;-44
2022/12/12 01:57:49;;;;;;;15.07;7.67;;;;;;;;;;5057268;28;20215;-44
2022/12/12 02:00:17;;;;;;;18.43;8.77;;;;;;;;;;5056388;28;20270;-44
2022/12/12 02:02:45;;;;;;;19.03;8.73;;;;;;;;;;5058048;28;20235;-44
2022/12/12 02:05:34;;;;;;;21.53;9.40;;;;;;;;;;5056199;28;20630;-45
2022/12/12 02:08:02;;;;;;;18.93;9.00;;;;;;;;;;5057581;28;20204;-44
2022/12/12 02:10:30;;;;;;;19.70;9.77;;;;;;;;;;5057101;28;20219;-44
2022/12/12 02:13:08;;;;;;;21.10;9.90;;;;;;;;;;5057087;28;20204;-44
2022/12/12 02:15:55;;;;;;;20.77;9.20;;;;;;;;;;5056875;28;20630;-44
2022/12/12 02:18:48;;;;;;;22.07;10.90;;;;;;;;;;5057379;28;20212;-44
2022/12/12 02:21:27;;;;;;;17.97;9.30;;;;;;;;;;5056585;28;20224;-44
2022/12/12 02:23:57;;;;;;;19.40;10.27;;;;;;;;;;5056718;28;20692;-44
2022/12/12 02:27:15;;;;;;;18.40;9.83;;;;;;;;;;5056786;28;20551;-44
2022/12/12 02:29:56;;;;;;;23.43;10.63;;;;;;;;;;5035004;28;20216;-43
2022/12/12 02:32:31;;;;;;;19.13;10.10;;;;;;;;;;5035559;28;20541;-43
2022/12/12 02:35:10;;;;;;;26.60;11.47;;;;;;;;;;5049864;28;20263;-43
2022/12/12 02:38:03;;;;;;;32.70;13.27;;;;;;;;;;5056760;28;20188;-46
2022/12/12 02:40:35;;;;;;;28.73;12.40;;;;;;;;;;5056761;28;20251;-43
2022/12/12 02:43:11;;;;;;;22.83;12.33;;;;;;;;;;5055591;28;20528;-43
2022/12/12 02:45:47;;;;;;;26.97;14.30;;;;;;;;;;5072016;28;20199;-43
2022/12/12 02:48:30;;;;;;;25.77;13.70;;;;;;;;;;5056381;28;20204;-44
2022/12/12 02:50:59;;;;;;;29.73;15.27;;;;;;;;;;5071456;28;20269;-44
2022/12/12 02:53:26;;;;;;;30.60;15.07;;;;;;;;;;5056425;28;20204;-43
2022/12/12 02:56:05;;;;;;;36.30;14.23;;;;;;;;;;5056259;28;20200;-44
2022/12/12 02:58:35;;;;;;;38.70;16.50;;;;;;;;;;5056358;28;20199;-44
2022/12/12 03:01:27;;;;;;;36.40;15.10;;;;;;;;;;5055032;28;20665;-44
2022/12/12 03:10:27;;;;;;;29.63;15.17;;;;;;;;;;5056067;28;20192;-44
2022/12/12 03:13:09;;;;;;;27.50;13.03;;;;;;;;;;5055999;28;20228;-44
2022/12/12 03:15:36;;;;;;;24.83;11.30;;;;;;;;;;5055832;28;20207;-44
2022/12/12 03:18:28;;;;;;;29.00;13.33;;;;;;;;;;5055683;28;20673;-44
2022/12/12 03:21:04;;;;;;;29.80;13.53;;;;;;;;;;5055608;28;20239;-44
2022/12/12 03:23:36;;;;;;;33.80;14.67;;;;;;;;;;5055226;28;20208;-44
2022/12/12 03:26:25;;;;;;;33.50;13.73;;;;;;;;;;5054622;28;20199;-46
2022/12/12 03:29:05;;;;;;;30.63;13.77;;;;;;;;;;5056164;28;20191;-43
2022/12/12 03:31:36;;;;;;;28.07;13.27;;;;;;;;;;5055016;28;20213;-44
2022/12/12 03:34:07;;;;;;;30.77;15.00;;;;;;;;;;5054891;28;20246;-44
2022/12/12 03:37:16;;;;;;;23.47;12.33;;;;;;;;;;5054437;28;20626;-43
2022/12/12 03:39:49;;;;;;;23.03;11.13;;;;;;;;;;4974754;28;20673;-45
2022/12/12 03:42:35;;;;;;;31.33;14.40;;;;;;;;;;4975198;28;20505;-44
2022/12/12 03:45:26;;;;;;;28.07;13.77;;;;;;;;;;4974920;28;20237;-44
2022/12/12 03:48:03;;;;;;;20.67;10.60;;;;;;;;;;4974821;28;20544;-44
2022/12/12 03:50:43;;;;;;;25.90;12.20;;;;;;;;;;4975002;28;20214;-44
2022/12/12 03:53:21;;;;;;;25.20;11.97;;;;;;;;;;4974829;28;20202;-43
2022/12/12 03:55:54;;;;;;;30.20;12.30;;;;;;;;;;4974797;28;20209;-43
2022/12/12 03:58:40;;;;;;;28.50;13.03;;;;;;;;;;4974774;28;20207;-43
2022/12/12 04:01:09;;;;;;;43.20;20.20;;;;;;;;;;4974650;28;20230;-43
2022/12/12 04:03:48;;;;;;;24.20;13.10;;;;;;;;;;4958479;28;20210;-43
2022/12/12 04:06:41;;;;;;;28.03;13.37;;;;;;;;;;4974751;28;20525;-43
2022/12/12 04:15:31;;;;;;;26.23;14.13;;;;;;;;;;4977285;28;20545;-43
2022/12/12 04:18:31;;;;;;;30.87;15.03;;;;;;;;;;5054500;28;20223;-46
2022/12/12 04:24:28;;;;;;;27.83;13.83;;;;;;;;;;5054748;28;20222;-44
2022/12/12 04:27:12;;;;;;;30.70;15.70;;;;;;;;;;5070525;28;20627;-45
2022/12/12 04:30:02;;;;;;;35.43;16.27;;;;;;;;;;5038782;28;20564;-45
2022/12/12 04:32:42;;;;;;;31.10;15.27;;;;;;;;;;5051767;28;20200;-44
2022/12/12 04:35:16;;;;;;;34.20;16.47;;;;;;;;;;5049813;28;20200;-44
2022/12/12 04:37:53;;;;;;;32.73;15.43;;;;;;;;;;5053091;28;20630;-43
2022/12/12 04:40:33;;;;;;;34.33;15.97;;;;;;;;;;5053005;28;20211;-42
2022/12/12 04:43:10;;;;;;;35.10;17.33;;;;;;;;;;5050648;28;20211;-43
2022/12/12 04:45:41;;;;;;;38.17;17.73;;;;;;;;;;5059261;28;20214;-43
2022/12/12 04:48:13;;;;;;;30.20;15.60;;;;;;;;;;5049459;28;20258;-42
2022/12/12 04:50:41;;;;;;;35.97;16.67;;;;;;;;;;5063832;28;20669;-42
2022/12/12 04:53:11;;;;;;;39.17;16.80;;;;;;;;;;5053696;28;20219;-42
2022/12/12 04:55:50;;;;;;;38.97;18.40;;;;;;;;;;5047230;28;20200;-43
2022/12/12 04:58:17;;;;;;;22.97;10.53;;;;;;;;;;5053100;28;20211;-41
2022/12/12 05:00:50;;;;;;;30.30;13.53;;;;;;;;;;5047311;28;20262;-42
2022/12/12 05:03:34;;;;;;;29.13;14.70;;;;;;;;;;5051665;28;20228;-41
2022/12/12 05:06:06;;;;;;;30.20;14.83;;;;;;;;;;5052447;28;20576;-46
2022/12/12 05:08:42;;;;;;;25.53;13.70;;;;;;;;;;5047999;28;20287;-42
2022/12/12 05:11:10;;;;;;;32.67;15.80;;;;;;;;;;5052273;28;20220;-42
2022/12/12 05:13:39;;;;;;;28.43;14.70;;;;;;;;;;5052339;28;20237;-41
2022/12/12 05:16:17;;;;;;;37.73;17.40;;;;;;;;;;5056401;28;20254;-42
2022/12/12 05:18:45;;;;;;;37.70;17.53;;;;;;;;;;5056272;28;20223;-42
2022/12/12 05:21:12;;;;;;;36.03;16.33;;;;;;;;;;5056997;28;20317;-42
2022/12/12 05:23:39;;;;;;;27.33;14.53;;;;;;;;;;5057543;28;20251;-42
2022/12/12 05:26:08;;;;;;;34.00;16.37;;;;;;;;;;5056686;28;20224;-44
2022/12/12 05:28:36;;;;;;;32.93;15.80;;;;;;;;;;5057020;28;20231;-45
2022/12/12 05:31:03;;;;;;;35.37;16.07;;;;;;;;;;5056568;28;20618;-48
2022/12/12 05:33:31;;;;;;;22.30;10.50;;;;;;;;;;5057525;28;20518;-44
2022/12/12 05:35:58;;;;;;;33.00;16.47;;;;;;;;;;5056838;28;20236;-48
2022/12/12 05:38:25;;;;;;;35.23;16.67;;;;;;;;;;5056810;28;20216;-45
2022/12/12 05:40:52;;;;;;;29.53;14.17;;;;;;;;;;5056714;28;20333;-44
2022/12/12 05:43:19;;;;;;;28.70;12.73;;;;;;;;;;5055607;28;20654;-44
2022/12/12 05:45:46;;;;;;;29.23;13.90;;;;;;;;;;5044901;28;20315;-45
2022/12/12 05:48:13;;;;;;;31.93;16.83;;;;;;;;;;5056515;28;20224;-45
2022/12/12 05:50:46;;;;;;;48.03;25.77;;;;;;;;;;5056468;28;20277;-45
2022/12/12 05:53:14;;;;;;;30.23;15.17;;;;;;;;;;5056088;28;20232;-44
2022/12/12 05:55:41;;;;;;;31.80;14.57;;;;;;;;;;5054208;28;20239;-48
2022/12/12 05:58:08;;;;;;;30.37;15.27;;;;;;;;;;5054069;28;20239;-46
2022/12/12 06:00:35;;;;;;;33.47;16.13;;;;;;;;;;5053748;28;20262;-47
2022/12/12 06:03:02;;;;;;;30.13;15.10;;;;;;;;;;5055989;28;20228;-45
2022/12/12 06:05:29;;;;;;;29.37;14.80;;;;;;;;;;5056496;28;20224;-44
2022/12/12 06:07:57;;;;;;;33.50;17.43;;;;;;;;;;5056301;28;20239;-43
2022/12/12 06:10:24;;;;;;;29.93;15.63;;;;;;;;;;5056053;28;20630;-45
2022/12/12 06:12:51;;;;;;;32.33;16.30;;;;;;;;;;5056423;28;20565;-44
2022/12/12 06:15:18;;;;;;;32.63;16.07;;;;;;;;;;5044293;28;20255;-43
2022/12/12 06:17:45;;;;;;;38.83;18.20;;;;;;;;;;5036417;28;20671;-45
2022/12/12 06:20:12;;;;;;;34.53;17.20;;;;;;;;;;5036014;28;20229;-44
2022/12/12 06:22:41;;;;;;;51.20;21.23;;;;;;;;;;5036069;28;20667;-44
2022/12/12 06:25:08;;;;;;;47.60;21.47;;;;;;;;;;5035092;28;20229;-44
2022/12/12 06:27:36;;;;;;;68.40;29.97;;;;;;;;;;5036077;28;20237;-44
2022/12/12 06:30:04;;;;;;;38.40;19.53;;;;;;;;;;5035442;28;20267;-50
2022/12/12 06:32:31;;;;;;;35.93;17.30;;;;;;;;;;5036002;28;20224;-44
2022/12/12 06:34:58;;;;;;;41.50;19.43;;;;;;;;;;5035952;28;20248;-49
2022/12/12 06:37:25;;;;;;;34.13;16.87;;;;;;;;;;5035397;28;20235;-45
2022/12/12 06:39:52;;;;;;;45.20;20.73;;;;;;;;;;5035811;28;20236;-45
2022/12/12 06:42:19;;;;;;;38.87;20.70;;;;;;;;;;5035357;28;20286;-44
2022/12/12 06:44:46;;;;;;;41.33;21.90;;;;;;;;;;5042037;28;20677;-44
2022/12/12 06:47:13;;;;;;;42.53;20.50;;;;;;;;;;5055390;28;20540;-44
2022/12/12 06:49:40;;;;;;;54.60;21.97;;;;;;;;;;5055674;28;20254;-44
2022/12/12 06:52:07;;;;;;;47.13;22.40;;;;;;;;;;5055090;28;20574;-45
2022/12/12 06:54:34;;;;;;;46.87;20.93;;;;;;;;;;5055456;28;20285;-45
2022/12/12 06:57:02;;;;;;;52.10;22.43;;;;;;;;;;5055217;28;20704;-49
2022/12/12 06:59:29;;;;;;;51.13;22.27;;;;;;;;;;5054822;28;20232;-45
2022/12/12 07:01:56;;;;;;;62.60;25.70;;;;;;;;;;5055385;28;20240;-45
2022/12/12 07:04:24;;;;;;;69.30;28.90;;;;;;;;;;5055012;28;20235;-45
2022/12/12 07:06:52;;;;;;;49.10;22.30;;;;;;;;;;5055636;28;20228;-45
2022/12/12 07:09:19;;;;;;;55.23;23.37;;;;;;;;;;5054826;28;20259;-44
2022/12/12 07:11:46;;;;;;;45.77;22.27;;;;;;;;;;5055274;28;20549;-45
2022/12/12 07:14:13;;;;;;;43.37;20.97;;;;;;;;;;5053503;28;20306;-46
2022/12/12 07:16:40;;;;;;;43.30;20.13;;;;;;;;;;5054910;28;20698;-42
2022/12/12 07:19:08;;;;;;;40.13;19.77;;;;;;;;;;5054741;28;20239;-43
2022/12/12 07:21:35;;;;;;;41.03;20.03;;;;;;;;;;5055113;28;20235;-44
2022/12/12 07:24:02;;;;;;;40.23;20.07;;;;;;;;;;5054964;28;20240;-44
2022/12/12 07:26:29;;;;;;;41.30;18.87;;;;;;;;;;5055155;28;20241;-43
2022/12/12 07:28:56;;;;;;;46.27;20.37;;;;;;;;;;5054637;28;20313;-42
2022/12/12 07:31:25;;;;;;;43.03;19.43;;;;;;;;;;5054653;28;20220;-46
2022/12/12 07:33:53;;;;;;;44.67;19.30;;;;;;;;;;5054391;28;20234;-44
2022/12/12 07:36:20;;;;;;;36.93;18.53;;;;;;;;;;5049509;28;20286;-45
2022/12/12 07:38:48;;;;;;;42.47;20.13;;;;;;;;;;5034738;28;20235;-45
2022/12/12 07:41:19;;;;;;;47.70;20.97;;;;;;;;;;5034687;28;20236;-44
2022/12/12 07:43:48;;;;;;;41.43;20.67;;;;;;;;;;5034253;28;20226;-44
2022/12/12 07:46:21;;;;;;;48.43;20.77;;;;;;;;;;5053261;28;20231;-44
2022/12/12 07:48:49;;;;;;;47.33;20.07;;;;;;;;;;5054791;28;20231;-45
2022/12/12 07:51:16;;;;;;;45.00;19.60;;;;;;;;;;5054159;28;20231;-44
2022/12/12 07:53:44;;;;;;;52.13;20.00;;;;;;;;;;5054387;28;20259;-41
2022/12/12 07:56:12;;;;;;;43.17;19.70;;;;;;;;;;5054201;28;20255;-45
2022/12/12 07:58:40;;;;;;;36.93;17.57;;;;;;;;;;5053872;28;20285;-44
2022/12/12 08:01:15;;;;;;;39.13;18.57;;;;;;;;;;5053889;28;20236;-44
2022/12/12 08:03:43;;;;;;;35.70;17.53;;;;;;;;;;5054575;28;20658;-44
2022/12/12 08:06:11;;;;;;;36.90;18.00;;;;;;;;;;5054113;28;20561;-44
2022/12/12 08:08:38;;;;;;;43.37;20.37;;;;;;;;;;5054392;28;20239;-44
2022/12/12 08:11:08;;;;;;;50.27;21.20;;;;;;;;;;5053945;28;20219;-52
2022/12/12 08:13:37;;;;;;;39.43;18.20;;;;;;;;;;5054017;28;20220;-44
2022/12/12 08:16:06;;;;;;;42.63;18.57;;;;;;;;;;5053613;28;20235;-46
2022/12/12 08:18:34;;;;;;;36.33;16.77;;;;;;;;;;5054311;28;20287;-43
2022/12/12 08:21:05;;;;;;;35.87;16.23;;;;;;;;;;5053947;28;20228;-46
2022/12/12 08:23:32;;;;;;;50.63;20.97;;;;;;;;;;5053108;28;20689;-45
2022/12/12 08:26:04;;;;;;;37.53;18.83;;;;;;;;;;5053766;28;20241;-45
2022/12/12 08:28:32;;;;;;;37.33;18.67;;;;;;;;;;5053904;28;20227;-44
2022/12/12 08:30:59;;;;;;;66.10;24.97;;;;;;;;;;5053580;28;20235;-47
2022/12/12 08:33:26;;;;;;;54.40;26.33;;;;;;;;;;5053773;28;20224;-46
2022/12/12 08:35:53;;;;;;;145.47;67.47;;;;;;;;;;5054132;28;20227;-44
2022/12/12 08:38:20;;;;;;;62.70;28.07;;;;;;;;;;5053913;28;20223;-44
2022/12/12 08:40:47;;;;;;;89.57;43.47;;;;;;;;;;5053558;28;20224;-44
2022/12/12 08:43:14;;;;;;;111.13;51.40;;;;;;;;;;5052973;28;20236;-46
2022/12/12 08:45:41;;;;;;;81.40;35.13;;;;;;;;;;5053553;28;20281;-46
2022/12/12 08:48:09;;;;;;;67.03;32.00;;;;;;;;;;5053513;28;20281;-48
2022/12/12 08:50:39;;;;;;;56.07;25.77;;;;;;;;;;5056718;28;20297;-46
2022/12/12 08:53:06;;;;;;;53.87;24.57;;;;;;;;;;5057469;28;20220;-48
2022/12/12 08:55:33;;;;;;;53.20;24.93;;;;;;;;;;5057746;28;20698;-44
2022/12/12 08:58:00;;;;;;;48.20;24.30;;;;;;;;;;5057134;28;20306;-47
2022/12/12 09:00:27;;;;;;;45.33;22.13;;;;;;;;;;5057557;28;20223;-45
2022/12/12 09:02:54;;;;;;;57.40;25.97;;;;;;;;;;5057606;28;20242;-44
2022/12/12 09:05:21;;;;;;;54.43;26.63;;;;;;;;;;5057237;28;20219;-47
2022/12/12 09:07:49;;;;;;;62.73;28.77;;;;;;;;;;5057438;28;20274;-43
2022/12/12 09:10:16;;;;;;;51.27;23.87;;;;;;;;;;5057616;28;20216;-42
2022/12/12 09:12:43;;;;;;;50.70;23.47;;;;;;;;;;5056858;28;20240;-44
2022/12/12 09:15:10;;;;;;;43.40;20.77;;;;;;;;;;5056918;28;20705;-45
2022/12/12 09:17:38;;;;;;;60.30;25.30;;;;;;;;;;5057010;28;20713;-45
2022/12/12 09:20:05;;;;;;;47.90;23.13;;;;;;;;;;5057629;28;20224;-45
2022/12/12 09:22:32;;;;;;;56.37;26.03;;;;;;;;;;5057184;28;20635;-44
2022/12/12 09:25:00;;;;;;;52.17;25.17;;;;;;;;;;5057169;28;20277;-44
2022/12/12 09:27:26;;;;;;;44.10;24.27;;;;;;;;;;5056560;28;20258;-43
2022/12/12 09:29:54;;;;;;;48.20;24.13;;;;;;;;;;5057064;28;20586;-44
2022/12/12 09:32:21;;;;;;;47.40;23.47;;;;;;;;;;5056551;28;20262;-44
2022/12/12 09:34:51;;;;;;;54.47;26.50;;;;;;;;;;5057678;28;20555;-43
2022/12/12 09:37:18;;;;;;;65.43;29.90;;;;;;;;;;5056957;28;20639;-43
2022/12/12 09:39:45;;;;;;;63.80;29.70;;;;;;;;;;5056995;28;20224;-46
2022/12/12 09:42:28;;;;;;;58.87;29.07;;;;;;;;;;5056206;28;20219;-42
2022/12/12 09:45:06;;;;;;;62.87;29.67;;;;;;;;;;5056557;28;20662;-43
2022/12/12 09:47:45;;;;;;;59.43;27.13;;;;;;;;;;5056356;28;20227;-43
2022/12/12 09:50:32;;;;;;;57.67;26.80;;;;;;;;;;5055903;28;20236;-44
2022/12/12 09:53:04;;;;;;;58.87;26.47;;;;;;;;;;5055830;28;20224;-46
2022/12/12 09:55:34;;;;;;;58.90;29.17;;;;;;;;;;5057006;28;20232;-43
2022/12/12 09:58:13;;;;;;;52.43;26.63;;;;;;;;;;5056219;28;20293;-51
2022/12/12 10:00:46;;;;;;;57.67;29.13;;;;;;;;;;5054296;28;20293;-44
2022/12/12 10:03:25;;;;;;;56.83;26.70;;;;;;;;;;5055031;28;20658;-45
2022/12/12 10:05:52;;;;;;;64.60;30.63;;;;;;;;;;5056494;28;20223;-43
2022/12/12 10:09:01;;;;;;;66.47;30.37;;;;;;;;;;5056352;28;20224;-44
2022/12/12 10:11:49;;;;;;;70.20;33.93;;;;;;;;;;5055034;28;20228;-44
2022/12/12 10:14:18;;;;;;;63.27;27.80;;;;;;;;;;5055525;28;20690;-43
2022/12/12 10:16:46;;;;;;;80.93;35.60;;;;;;;;;;5055395;28;20248;-44
2022/12/12 10:19:24;;;;;;;80.33;37.30;;;;;;;;;;5055644;28;20235;-44
2022/12/12 10:21:53;;;;;;;66.97;31.80;;;;;;;;;;5056055;28;20235;-43
2022/12/12 10:24:31;;;;;;;61.67;30.50;;;;;;;;;;5054800;28;20314;-44
2022/12/12 10:27:00;;;;;;;58.53;28.53;;;;;;;;;;5055473;28;20224;-45
2022/12/12 10:29:27;;;;;;;67.87;30.77;;;;;;;;;;5055165;28;20224;-44
2022/12/12 10:32:20;;;;;;;59.17;26.53;;;;;;;;;;5056214;28;20231;-44
2022/12/12 10:34:54;;;;;;;56.20;26.37;;;;;;;;;;5055580;28;20243;-45
2022/12/12 10:37:40;;;;;;;72.27;33.33;;;;;;;;;;5054752;28;20238;-44
2022/12/12 10:40:31;;;;;;;88.90;36.87;;;;;;;;;;5055791;28;20220;-44
2022/12/12 10:43:14;;;;;;;67.07;29.30;;;;;;;;;;5055673;28;20308;-46
2022/12/12 10:45:52;;;;;;;66.57;29.80;;;;;;;;;;5055265;28;20232;-43
2022/12/12 10:48:19;;;;;;;57.43;27.83;;;;;;;;;;5055650;28;20227;-44
2022/12/12 10:50:49;;;;;;;57.30;27.87;;;;;;;;;;5055579;28;20243;-44
2022/12/12 10:53:16;;;;;;;63.63;31.30;;;;;;;;;;5054883;28;20231;-44
2022/12/12 10:55:48;;;;;;;69.43;27.97;;;;;;;;;;5054937;28;20251;-44
2022/12/12 10:58:18;;;;;;;60.07;27.90;;;;;;;;;;5055467;28;20236;-43
2022/12/12 11:00:47;;;;;;;76.37;32.40;;;;;;;;;;5055360;28;20259;-44
2022/12/12 11:03:40;;;;;;;75.57;31.83;;;;;;;;;;5054335;28;20393;-42
2022/12/12 11:06:12;;;;;;;62.33;27.57;;;;;;;;;;5053868;28;20323;-44
2022/12/12 11:09:05;;;;;;;72.57;31.90;;;;;;;;;;5054786;28;20555;-44
2022/12/12 11:11:32;;;;;;;88.37;36.47;;;;;;;;;;5054413;28;20327;-44
2022/12/12 11:14:02;;;;;;;90.60;39.23;;;;;;;;;;5054909;28;20231;-45
2022/12/12 11:16:40;;;;;;;66.53;32.97;;;;;;;;;;5054504;28;20236;-44
2022/12/12 11:19:25;;;;;;;77.17;34.27;;;;;;;;;;5055029;28;20243;-44
2022/12/12 11:22:02;;;;;;;65.63;31.47;;;;;;;;;;5054589;28;20227;-44
2022/12/12 11:24:30;;;;;;;78.13;35.80;;;;;;;;;;5054947;28;20251;-44
2022/12/12 11:27:05;;;;;;;84.50;39.87;;;;;;;;;;5053651;28;20253;-44
2022/12/12 11:29:47;;;;;;;88.97;38.70;;;;;;;;;;5054746;28;20673;-44
2022/12/12 11:32:21;;;;;;;81.80;36.33;;;;;;;;;;5053827;28;20318;-46
2022/12/12 11:34:51;;;;;;;93.43;39.73;;;;;;;;;;5054841;28;20224;-43
2022/12/12 11:37:21;;;;;;;86.07;40.00;;;;;;;;;;5054234;28;20297;-44
2022/12/12 11:39:50;;;;;;;83.07;40.30;;;;;;;;;;5055030;28;20219;-47
2022/12/12 11:42:28;;;;;;;71.67;33.07;;;;;;;;;;5053823;28;20686;-43
2022/12/12 11:45:22;;;;;;;75.47;37.13;;;;;;;;;;5054502;28;20305;-44
2022/12/12 11:47:49;;;;;;;70.70;33.80;;;;;;;;;;5052185;28;20227;-47
2022/12/12 11:50:22;;;;;;;85.27;39.77;;;;;;;;;;5054119;28;20238;-43
2022/12/12 11:52:52;;;;;;;79.00;37.43;;;;;;;;;;5054197;28;20238;-43
2022/12/12 11:55:35;;;;;;;66.43;31.90;;;;;;;;;;5054009;28;20232;-44
2022/12/12 11:58:09;;;;;;;72.67;34.70;;;;;;;;;;5054084;28;20662;-45
2022/12/12 12:00:44;;;;;;;62.80;31.57;;;;;;;;;;5053385;28;20234;-44
2022/12/12 12:03:11;;;;;;;76.77;34.93;;;;;;;;;;5053851;28;20231;-44
2022/12/12 12:05:57;;;;;;;83.90;37.73;;;;;;;;;;5054104;28;20673;-44
2022/12/12 12:08:34;;;;;;;68.97;34.20;;;;;;;;;;5054260;28;20227;-44
2022/12/12 12:11:13;;;;;;;105.23;43.77;;;;;;;;;;5053522;28;20227;-44
2022/12/12 12:13:58;;;;;;;101.37;44.80;;;;;;;;;;5054273;28;20246;-44
2022/12/12 12:16:36;;;;;;;94.80;41.77;;;;;;;;;;5034015;28;20240;-44
2022/12/12 12:19:21;;;;;;;99.87;41.70;;;;;;;;;;5033044;28;20260;-47
2022/12/12 12:22:09;;;;;;;101.90;43.17;;;;;;;;;;5033306;28;20232;-44
2022/12/12 12:24:47;;;;;;;120.33;50.40;;;;;;;;;;5032795;28;20295;-44
2022/12/12 12:27:24;;;;;;;125.10;48.47;;;;;;;;;;5033810;28;20235;-44
2022/12/12 12:30:16;;;;;;;102.67;43.87;;;;;;;;;;5049653;28;20225;-44
2022/12/12 12:33:05;;;;;;;108.03;43.57;;;;;;;;;;5034287;28;20592;-44
2022/12/12 12:35:46;;;;;;;121.73;49.03;;;;;;;;;;5049528;28;20237;-44
2022/12/12 12:38:34;;;;;;;109.47;46.87;;;;;;;;;;5032645;28;20662;-48
2022/12/12 12:41:21;;;;;;;85.57;37.37;;;;;;;;;;5033628;28;20232;-45
2022/12/12 12:43:48;;;;;;;87.30;40.30;;;;;;;;;;5049204;28;20255;-44
2022/12/12 12:46:37;;;;;;;94.43;41.77;;;;;;;;;;5052839;28;20228;-44
2022/12/12 12:49:14;;;;;;;114.47;47.20;;;;;;;;;;5052693;28;20243;-46
2022/12/12 12:51:47;;;;;;;128.03;53.47;;;;;;;;;;5053081;28;20219;-45
2022/12/12 12:54:22;;;;;;;122.33;52.20;;;;;;;;;;5052836;28;20223;-44
2022/12/12 12:56:52;;;;;;;142.63;58.77;;;;;;;;;;5053820;28;20261;-44
2022/12/12 12:59:23;;;;;;;107.83;46.87;;;;;;;;;;5053484;28;20246;-44
2022/12/12 13:01:51;;;;;;;154.60;59.53;;;;;;;;;;5053863;28;20247;-44
2022/12/12 13:04:40;;;;;;;112.60;46.57;;;;;;;;;;5052033;28;20239;-44
2022/12/12 13:07:16;;;;;;;130.27;53.77;;;;;;;;;;5052416;28;20228;-45
2022/12/12 13:09:53;;;;;;;129.27;51.83;;;;;;;;;;5051986;28;20621;-42
2022/12/12 13:12:29;;;;;;;101.03;41.83;;;;;;;;;;5053392;28;20231;-42
2022/12/12 13:15:05;;;;;;;100.20;41.67;;;;;;;;;;5044532;28;20236;-43
2022/12/12 13:17:45;;;;;;;94.30;44.87;;;;;;;;;;5033617;28;20294;-43
2022/12/12 13:20:18;;;;;;;102.83;46.13;;;;;;;;;;5033259;28;20611;-43
2022/12/12 13:22:59;;;;;;;119.20;49.60;;;;;;;;;;5032926;28;20228;-43
2022/12/12 13:25:31;;;;;;;104.77;44.10;;;;;;;;;;5032889;28;20229;-45
2022/12/12 13:27:59;;;;;;;115.40;50.33;;;;;;;;;;5033402;28;20227;-47
2022/12/12 13:30:40;;;;;;;102.43;41.93;;;;;;;;;;5032323;28;20225;-44
2022/12/12 13:33:16;;;;;;;130.13;55.50;;;;;;;;;;5032232;28;20224;-44
2022/12/12 13:35:47;;;;;;;125.10;58.40;;;;;;;;;;5035744;28;20282;-43
2022/12/12 13:38:27;;;;;;;98.80;48.97;;;;;;;;;;5037026;28;20612;-44
2022/12/12 13:40:58;;;;;;;92.27;43.93;;;;;;;;;;5035260;28;20714;-44
2022/12/12 13:43:49;;;;;;;99.17;46.93;;;;;;;;;;5036985;28;20255;-43
2022/12/12 13:46:23;;;;;;;99.80;45.83;;;;;;;;;;5052163;28;20231;-44
2022/12/12 13:49:05;;;;;;;118.33;54.37;;;;;;;;;;5036850;28;20375;-43
2022/12/12 13:51:39;;;;;;;94.13;44.77;;;;;;;;;;5036617;28;20672;-45
2022/12/12 13:54:06;;;;;;;99.07;44.90;;;;;;;;;;5036434;28;20588;-50
2022/12/12 13:56:56;;;;;;;109.93;47.60;;;;;;;;;;5036681;28;20551;-44
2022/12/12 13:59:26;;;;;;;84.97;36.47;;;;;;;;;;5036973;28;20224;-44
2022/12/12 14:01:56;;;;;;;104.53;47.93;;;;;;;;;;5036545;28;20236;-44
2022/12/12 14:04:33;;;;;;;100.47;45.30;;;;;;;;;;5035530;28;20302;-45
2022/12/12 14:07:13;;;;;;;96.77;43.43;;;;;;;;;;5036373;28;20721;-50
2022/12/12 14:09:44;;;;;;;85.10;37.73;;;;;;;;;;5039647;28;20881;-44
2022/12/12 14:12:23;;;;;;;90.47;40.10;;;;;;;;;;5019750;28;20231;-44
2022/12/12 14:15:01;;;;;;;90.30;39.10;;;;;;;;;;5047104;28;20224;-43
2022/12/12 14:17:30;;;;;;;92.23;40.60;;;;;;;;;;5034545;28;20549;-44
2022/12/12 14:20:07;;;;;;;104.37;44.90;;;;;;;;;;5036108;28;20232;-44
2022/12/12 14:22:35;;;;;;;89.77;43.90;;;;;;;;;;5035227;28;20231;-44
2022/12/12 14:25:18;;;;;;;90.83;41.57;;;;;;;;;;5034851;28;20707;-46
2022/12/12 14:27:48;;;;;;;98.63;46.17;;;;;;;;;;5036212;28;20224;-44
2022/12/12 14:30:23;;;;;;;90.43;44.07;;;;;;;;;;5035687;28;20717;-44
2022/12/12 14:33:16;;;;;;;96.27;45.63;;;;;;;;;;5036358;28;20227;-44
2022/12/12 14:36:32;;;;;;;88.00;41.40;;;;;;;;;;5035614;28;20220;-44
2022/12/12 14:39:23;;;;;;;81.33;40.60;;;;;;;;;;5034632;28;20221;-43
2022/12/12 14:41:52;;;;;;;100.00;46.60;;;;;;;;;;5035158;28;20224;-45
2022/12/12 14:44:24;;;;;;;96.93;46.33;;;;;;;;;;5037048;28;20240;-45
2022/12/12 14:47:07;;;;;;;111.90;53.00;;;;;;;;;;5054683;28;20224;-45
2022/12/12 14:49:35;;;;;;;100.80;48.33;;;;;;;;;;5054804;28;20227;-46
2022/12/12 14:52:02;;;;;;;114.37;51.97;;;;;;;;;;5054755;28;20236;-45
2022/12/12 14:54:29;;;;;;;106.53;52.90;;;;;;;;;;5054174;28;20224;-45
2022/12/12 14:56:57;;;;;;;116.70;51.93;;;;;;;;;;5055275;28;20281;-44
2022/12/12 14:59:30;;;;;;;118.50;55.20;;;;;;;;;;5053830;28;20346;-45
2022/12/12 15:02:20;;;;;;;117.70;56.70;;;;;;;;;;5055213;28;20289;-45
2022/12/12 15:04:50;;;;;;;144.83;63.77;;;;;;;;;;5055189;28;20243;-43
2022/12/12 15:07:28;;;;;;;115.27;51.53;;;;;;;;;;5048731;28;20217;-44